Terminal Aerodrome Forecast
Issued by NWS Duluth, MN

Home | Current Version | Previous Version | Text Only | Print | Product List | Glossary On
Versions: 1 2 3 4 5 6 7 8 9 10 11 12 13 14 15 16 17 18 19 20 21 22 23 24 25 26 27 28 29
000
FTUS43 KDLH 271700
TAFDLH
TAF
KDLH 271720Z 2718/2818 VRB05KT 4SM -SHRA BR BKN008 OVC025
      TEMPO 2718/2720 1/2SM RA FG OVC004
     FM272000 36008KT P6SM VCSH BKN015 OVC040
     FM280000 34006KT P6SM BKN040
     FM280800 VRB04KT P6SM FEW050
     FM281400 34010KT P6SM SKC=

USA.gov is the U.S. government's official web portal to all federal, state and local government web resources and services.